sensor_id;sensor_type;location;lat;lon;timestamp;P1;durP1;ratioP1;P2;durP2;ratioP2
57599;SDS011;43426;43.594;24.334;2024-03-02T00:01:06;108.50;;;44.13;;
57599;SDS011;43426;43.594;24.334;2024-03-02T00:03:32;92.97;;;41.22;;
57599;SDS011;43426;43.594;24.334;2024-03-02T00:05:58;116.32;;;47.83;;
57599;SDS011;43426;43.594;24.334;2024-03-02T00:08:24;77.55;;;33.67;;
57599;SDS011;43426;43.594;24.334;2024-03-02T00:10:51;89.82;;;37.83;;
57599;SDS011;43426;43.594;24.334;2024-03-02T00:13:18;77.22;;;36.30;;
57599;SDS011;43426;43.594;24.334;2024-03-02T00:15:48;79.63;;;36.42;;
57599;SDS011;43426;43.594;24.334;2024-03-02T00:18:35;64.85;;;32.92;;
57599;SDS011;43426;43.594;24.334;2024-03-02T00:21:01;72.85;;;33.55;;
57599;SDS011;43426;43.594;24.334;2024-03-02T00:23:31;75.50;;;35.25;;
57599;SDS011;43426;43.594;24.334;2024-03-02T00:25:57;62.20;;;32.30;;
57599;SDS011;43426;43.594;24.334;2024-03-02T00:28:34;60.58;;;31.38;;
57599;SDS011;43426;43.594;24.334;2024-03-02T00:33:34;47.35;;;26.38;;
57599;SDS011;43426;43.594;24.334;2024-03-02T00:36:04;50.85;;;27.42;;
57599;SDS011;43426;43.594;24.334;2024-03-02T00:38:31;52.13;;;25.92;;
57599;SDS011;43426;43.594;24.334;2024-03-02T00:41:04;41.45;;;22.08;;
57599;SDS011;43426;43.594;24.334;2024-03-02T00:46:15;48.20;;;20.58;;
57599;SDS011;43426;43.594;24.334;2024-03-02T00:49:04;35.63;;;18.23;;
57599;SDS011;43426;43.594;24.334;2024-03-02T00:51:30;33.08;;;17.02;;
57599;SDS011;43426;43.594;24.334;2024-03-02T00:54:01;37.88;;;16.23;;
57599;SDS011;43426;43.594;24.334;2024-03-02T00:56:29;32.58;;;15.35;;
57599;SDS011;43426;43.594;24.334;2024-03-02T00:58:56;28.15;;;15.07;;
57599;SDS011;43426;43.594;24.334;2024-03-02T01:01:21;32.67;;;15.48;;
57599;SDS011;43426;43.594;24.334;2024-03-02T01:03:47;33.10;;;16.70;;
57599;SDS011;43426;43.594;24.334;2024-03-02T01:06:14;37.65;;;17.23;;
57599;SDS011;43426;43.594;24.334;2024-03-02T01:08:40;36.83;;;17.13;;
57599;SDS011;43426;43.594;24.334;2024-03-02T01:11:06;35.58;;;16.67;;
57599;SDS011;43426;43.594;24.334;2024-03-02T01:13:32;29.50;;;16.02;;
57599;SDS011;43426;43.594;24.334;2024-03-02T01:15:57;33.33;;;15.45;;
57599;SDS011;43426;43.594;24.334;2024-03-02T01:18:24;31.00;;;15.65;;
57599;SDS011;43426;43.594;24.334;2024-03-02T01:20:49;35.25;;;16.00;;
57599;SDS011;43426;43.594;24.334;2024-03-02T01:23:19;39.53;;;17.65;;
57599;SDS011;43426;43.594;24.334;2024-03-02T01:25:45;30.35;;;15.43;;
57599;SDS011;43426;43.594;24.334;2024-03-02T01:28:12;22.65;;;12.75;;
57599;SDS011;43426;43.594;24.334;2024-03-02T01:30:38;26.58;;;12.90;;
57599;SDS011;43426;43.594;24.334;2024-03-02T01:33:03;33.80;;;13.57;;
57599;SDS011;43426;43.594;24.334;2024-03-02T01:35:30;26.88;;;15.05;;
57599;SDS011;43426;43.594;24.334;2024-03-02T01:40:22;34.05;;;14.45;;
57599;SDS011;43426;43.594;24.334;2024-03-02T01:42:51;29.13;;;14.65;;
57599;SDS011;43426;43.594;24.334;2024-03-02T01:45:18;33.78;;;14.63;;
57599;SDS011;43426;43.594;24.334;2024-03-02T01:47:44;24.80;;;14.20;;
57599;SDS011;43426;43.594;24.334;2024-03-02T01:50:10;30.75;;;14.75;;
57599;SDS011;43426;43.594;24.334;2024-03-02T01:52:36;33.67;;;15.98;;
57599;SDS011;43426;43.594;24.334;2024-03-02T01:55:03;36.35;;;15.40;;
57599;SDS011;43426;43.594;24.334;2024-03-02T01:59:54;28.10;;;13.40;;
57599;SDS011;43426;43.594;24.334;2024-03-02T02:02:20;32.45;;;15.20;;
57599;SDS011;43426;43.594;24.334;2024-03-02T02:04:46;37.58;;;18.48;;
57599;SDS011;43426;43.594;24.334;2024-03-02T02:07:11;40.28;;;17.58;;
57599;SDS011;43426;43.594;24.334;2024-03-02T02:09:39;34.70;;;15.52;;
57599;SDS011;43426;43.594;24.334;2024-03-02T02:12:08;26.45;;;12.50;;
57599;SDS011;43426;43.594;24.334;2024-03-02T02:14:35;28.77;;;12.32;;
57599;SDS011;43426;43.594;24.334;2024-03-02T02:17:00;33.15;;;13.20;;
57599;SDS011;43426;43.594;24.334;2024-03-02T02:19:26;33.15;;;14.88;;
57599;SDS011;43426;43.594;24.334;2024-03-02T02:21:51;32.17;;;13.57;;
57599;SDS011;43426;43.594;24.334;2024-03-02T02:24:17;26.83;;;12.63;;
57599;SDS011;43426;43.594;24.334;2024-03-02T02:26:42;25.77;;;12.88;;
57599;SDS011;43426;43.594;24.334;2024-03-02T02:29:08;23.67;;;11.55;;
57599;SDS011;43426;43.594;24.334;2024-03-02T02:31:40;24.65;;;12.68;;
57599;SDS011;43426;43.594;24.334;2024-03-02T02:34:06;26.17;;;12.45;;
57599;SDS011;43426;43.594;24.334;2024-03-02T02:36:32;27.92;;;12.05;;
57599;SDS011;43426;43.594;24.334;2024-03-02T02:39:00;22.83;;;11.88;;
57599;SDS011;43426;43.594;24.334;2024-03-02T02:41:32;21.45;;;12.02;;
57599;SDS011;43426;43.594;24.334;2024-03-02T02:43:57;21.55;;;12.38;;
57599;SDS011;43426;43.594;24.334;2024-03-02T02:46:23;22.58;;;11.73;;
57599;SDS011;43426;43.594;24.334;2024-03-02T02:48:48;25.77;;;12.10;;
57599;SDS011;43426;43.594;24.334;2024-03-02T02:51:16;36.15;;;13.60;;
57599;SDS011;43426;43.594;24.334;2024-03-02T02:53:42;28.63;;;13.55;;
57599;SDS011;43426;43.594;24.334;2024-03-02T02:56:08;27.73;;;14.35;;
57599;SDS011;43426;43.594;24.334;2024-03-02T02:58:33;36.65;;;15.73;;
57599;SDS011;43426;43.594;24.334;2024-03-02T03:00:59;33.05;;;15.25;;
57599;SDS011;43426;43.594;24.334;2024-03-02T03:03:24;29.02;;;16.67;;
57599;SDS011;43426;43.594;24.334;2024-03-02T03:05:50;27.17;;;14.30;;
57599;SDS011;43426;43.594;24.334;2024-03-02T03:08:15;26.23;;;14.02;;
57599;SDS011;43426;43.594;24.334;2024-03-02T03:10:41;28.40;;;13.30;;
57599;SDS011;43426;43.594;24.334;2024-03-02T03:13:07;28.77;;;13.77;;
57599;SDS011;43426;43.594;24.334;2024-03-02T03:15:36;32.80;;;14.02;;
57599;SDS011;43426;43.594;24.334;2024-03-02T03:18:02;32.30;;;13.85;;
57599;SDS011;43426;43.594;24.334;2024-03-02T03:20:29;34.10;;;15.77;;
57599;SDS011;43426;43.594;24.334;2024-03-02T03:22:54;26.88;;;14.88;;
57599;SDS011;43426;43.594;24.334;2024-03-02T03:25:20;29.75;;;14.82;;
57599;SDS011;43426;43.594;24.334;2024-03-02T03:27:46;26.83;;;16.20;;
57599;SDS011;43426;43.594;24.334;2024-03-02T03:30:12;26.75;;;15.35;;
57599;SDS011;43426;43.594;24.334;2024-03-02T03:32:37;29.85;;;14.68;;
57599;SDS011;43426;43.594;24.334;2024-03-02T03:35:03;37.92;;;15.15;;
57599;SDS011;43426;43.594;24.334;2024-03-02T03:37:29;25.40;;;13.48;;
57599;SDS011;43426;43.594;24.334;2024-03-02T03:40:01;32.80;;;14.68;;
57599;SDS011;43426;43.594;24.334;2024-03-02T03:42:27;32.83;;;14.27;;
57599;SDS011;43426;43.594;24.334;2024-03-02T03:44:53;30.80;;;15.77;;
57599;SDS011;43426;43.594;24.334;2024-03-02T03:47:19;32.10;;;14.45;;
57599;SDS011;43426;43.594;24.334;2024-03-02T03:49:45;32.00;;;14.18;;
57599;SDS011;43426;43.594;24.334;2024-03-02T03:52:11;27.42;;;14.23;;
57599;SDS011;43426;43.594;24.334;2024-03-02T03:54:36;32.13;;;13.43;;
57599;SDS011;43426;43.594;24.334;2024-03-02T03:57:03;29.00;;;13.63;;
57599;SDS011;43426;43.594;24.334;2024-03-02T03:59:29;35.10;;;15.70;;
57599;SDS011;43426;43.594;24.334;2024-03-02T04:01:54;25.40;;;14.55;;
57599;SDS011;43426;43.594;24.334;2024-03-02T04:04:20;26.00;;;13.02;;
57599;SDS011;43426;43.594;24.334;2024-03-02T04:06:45;31.90;;;14.98;;
57599;SDS011;43426;43.594;24.334;2024-03-02T04:09:11;37.13;;;14.10;;
57599;SDS011;43426;43.594;24.334;2024-03-02T04:11:36;29.83;;;14.27;;
57599;SDS011;43426;43.594;24.334;2024-03-02T04:14:02;29.20;;;14.40;;
57599;SDS011;43426;43.594;24.334;2024-03-02T04:16:27;23.92;;;13.48;;
57599;SDS011;43426;43.594;24.334;2024-03-02T04:18:53;31.20;;;13.85;;
57599;SDS011;43426;43.594;24.334;2024-03-02T04:21:19;26.08;;;13.98;;
57599;SDS011;43426;43.594;24.334;2024-03-02T04:23:45;31.90;;;14.40;;
57599;SDS011;43426;43.594;24.334;2024-03-02T04:26:10;34.80;;;14.98;;
57599;SDS011;43426;43.594;24.334;2024-03-02T04:28:36;35.03;;;15.25;;
57599;SDS011;43426;43.594;24.334;2024-03-02T04:31:01;27.48;;;14.98;;
57599;SDS011;43426;43.594;24.334;2024-03-02T04:33:27;35.15;;;15.57;;
57599;SDS011;43426;43.594;24.334;2024-03-02T04:35:52;42.70;;;15.75;;
57599;SDS011;43426;43.594;24.334;2024-03-02T04:38:18;29.08;;;15.63;;
57599;SDS011;43426;43.594;24.334;2024-03-02T04:40:43;40.70;;;15.98;;
57599;SDS011;43426;43.594;24.334;2024-03-02T04:43:09;33.00;;;15.10;;
57599;SDS011;43426;43.594;24.334;2024-03-02T04:45:37;25.80;;;14.70;;
57599;SDS011;43426;43.594;24.334;2024-03-02T04:48:03;36.30;;;15.63;;
57599;SDS011;43426;43.594;24.334;2024-03-02T04:50:29;33.90;;;18.25;;
57599;SDS011;43426;43.594;24.334;2024-03-02T04:52:55;41.63;;;18.25;;
57599;SDS011;43426;43.594;24.334;2024-03-02T04:55:20;38.80;;;21.00;;
57599;SDS011;43426;43.594;24.334;2024-03-02T04:58:09;44.28;;;20.65;;
57599;SDS011;43426;43.594;24.334;2024-03-02T05:00:34;33.60;;;18.75;;
57599;SDS011;43426;43.594;24.334;2024-03-02T05:03:01;44.20;;;19.45;;
57599;SDS011;43426;43.594;24.334;2024-03-02T05:05:27;37.03;;;19.20;;
57599;SDS011;43426;43.594;24.334;2024-03-02T05:07:52;36.42;;;20.42;;
57599;SDS011;43426;43.594;24.334;2024-03-02T05:10:18;44.28;;;20.35;;
57599;SDS011;43426;43.594;24.334;2024-03-02T05:12:43;35.25;;;19.25;;
57599;SDS011;43426;43.594;24.334;2024-03-02T05:15:09;33.08;;;18.45;;
57599;SDS011;43426;43.594;24.334;2024-03-02T05:17:36;38.70;;;18.30;;
57599;SDS011;43426;43.594;24.334;2024-03-02T05:20:03;40.45;;;18.85;;
57599;SDS011;43426;43.594;24.334;2024-03-02T05:22:29;40.55;;;18.42;;
57599;SDS011;43426;43.594;24.334;2024-03-02T05:24:55;36.22;;;18.83;;
57599;SDS011;43426;43.594;24.334;2024-03-02T05:27:21;35.75;;;19.75;;
57599;SDS011;43426;43.594;24.334;2024-03-02T05:29:47;36.70;;;19.15;;
57599;SDS011;43426;43.594;24.334;2024-03-02T05:32:12;34.08;;;17.77;;
57599;SDS011;43426;43.594;24.334;2024-03-02T05:34:38;31.10;;;16.25;;
57599;SDS011;43426;43.594;24.334;2024-03-02T05:37:03;28.85;;;17.67;;
57599;SDS011;43426;43.594;24.334;2024-03-02T05:39:29;32.00;;;17.85;;
57599;SDS011;43426;43.594;24.334;2024-03-02T05:41:54;31.00;;;17.85;;
57599;SDS011;43426;43.594;24.334;2024-03-02T05:44:20;31.67;;;17.02;;
57599;SDS011;43426;43.594;24.334;2024-03-02T05:46:46;26.23;;;16.30;;
57599;SDS011;43426;43.594;24.334;2024-03-02T05:49:11;28.48;;;16.92;;
57599;SDS011;43426;43.594;24.334;2024-03-02T05:51:37;37.15;;;18.23;;
57599;SDS011;43426;43.594;24.334;2024-03-02T05:54:02;42.42;;;18.90;;
57599;SDS011;43426;43.594;24.334;2024-03-02T05:56:28;47.25;;;18.73;;
57599;SDS011;43426;43.594;24.334;2024-03-02T05:58:54;35.83;;;18.00;;
57599;SDS011;43426;43.594;24.334;2024-03-02T06:01:44;36.58;;;16.92;;
57599;SDS011;43426;43.594;24.334;2024-03-02T06:04:12;34.17;;;17.23;;
57599;SDS011;43426;43.594;24.334;2024-03-02T06:06:38;49.15;;;18.15;;
57599;SDS011;43426;43.594;24.334;2024-03-02T06:09:04;38.90;;;18.98;;
57599;SDS011;43426;43.594;24.334;2024-03-02T06:11:33;44.30;;;19.10;;
57599;SDS011;43426;43.594;24.334;2024-03-02T06:14:08;38.08;;;19.50;;
57599;SDS011;43426;43.594;24.334;2024-03-02T06:16:34;47.70;;;20.30;;
57599;SDS011;43426;43.594;24.334;2024-03-02T06:19:01;36.92;;;20.00;;
57599;SDS011;43426;43.594;24.334;2024-03-02T06:21:27;50.13;;;22.23;;
57599;SDS011;43426;43.594;24.334;2024-03-02T06:26:19;45.20;;;22.00;;
57599;SDS011;43426;43.594;24.334;2024-03-02T06:28:44;49.80;;;21.63;;
57599;SDS011;43426;43.594;24.334;2024-03-02T06:31:10;55.05;;;23.10;;
57599;SDS011;43426;43.594;24.334;2024-03-02T06:33:36;49.50;;;20.35;;
57599;SDS011;43426;43.594;24.334;2024-03-02T06:36:02;46.50;;;19.70;;
57599;SDS011;43426;43.594;24.334;2024-03-02T06:38:28;47.58;;;20.58;;
57599;SDS011;43426;43.594;24.334;2024-03-02T06:40:53;49.40;;;20.83;;
57599;SDS011;43426;43.594;24.334;2024-03-02T06:43:20;29.95;;;18.67;;
57599;SDS011;43426;43.594;24.334;2024-03-02T06:45:48;29.77;;;19.00;;
57599;SDS011;43426;43.594;24.334;2024-03-02T06:48:15;39.33;;;18.35;;
57599;SDS011;43426;43.594;24.334;2024-03-02T06:50:45;47.30;;;19.05;;
57599;SDS011;43426;43.594;24.334;2024-03-02T06:53:14;44.50;;;20.15;;
57599;SDS011;43426;43.594;24.334;2024-03-02T06:55:42;51.22;;;21.88;;
57599;SDS011;43426;43.594;24.334;2024-03-02T06:58:11;45.10;;;22.10;;
57599;SDS011;43426;43.594;24.334;2024-03-02T07:00:38;43.63;;;20.67;;
57599;SDS011;43426;43.594;24.334;2024-03-02T07:03:03;175.65;;;110.70;;
57599;SDS011;43426;43.594;24.334;2024-03-02T07:05:29;110.78;;;58.60;;
57599;SDS011;43426;43.594;24.334;2024-03-02T07:07:55;487.13;;;244.88;;
57599;SDS011;43426;43.594;24.334;2024-03-02T07:10:20;78.20;;;36.20;;
57599;SDS011;43426;43.594;24.334;2024-03-02T07:12:46;70.60;;;33.58;;
57599;SDS011;43426;43.594;24.334;2024-03-02T07:15:11;197.98;;;155.85;;
57599;SDS011;43426;43.594;24.334;2024-03-02T07:17:53;66.45;;;33.33;;
57599;SDS011;43426;43.594;24.334;2024-03-02T07:20:19;53.92;;;27.73;;
57599;SDS011;43426;43.594;24.334;2024-03-02T07:22:45;59.40;;;30.10;;
57599;SDS011;43426;43.594;24.334;2024-03-02T07:25:10;54.05;;;29.23;;
57599;SDS011;43426;43.594;24.334;2024-03-02T07:27:36;39.42;;;21.13;;
57599;SDS011;43426;43.594;24.334;2024-03-02T07:30:02;44.47;;;27.92;;
57599;SDS011;43426;43.594;24.334;2024-03-02T07:32:28;51.13;;;25.25;;
57599;SDS011;43426;43.594;24.334;2024-03-02T07:34:54;52.33;;;22.85;;
57599;SDS011;43426;43.594;24.334;2024-03-02T07:37:20;231.50;;;156.25;;
57599;SDS011;43426;43.594;24.334;2024-03-02T07:39:46;70.80;;;44.40;;
57599;SDS011;43426;43.594;24.334;2024-03-02T07:42:12;46.30;;;26.88;;
57599;SDS011;43426;43.594;24.334;2024-03-02T07:44:37;42.60;;;22.23;;
57599;SDS011;43426;43.594;24.334;2024-03-02T07:47:03;42.13;;;25.83;;
57599;SDS011;43426;43.594;24.334;2024-03-02T07:49:29;46.30;;;31.52;;
57599;SDS011;43426;43.594;24.334;2024-03-02T07:51:54;54.40;;;24.67;;
57599;SDS011;43426;43.594;24.334;2024-03-02T07:54:20;37.75;;;21.80;;
57599;SDS011;43426;43.594;24.334;2024-03-02T07:56:46;80.85;;;43.55;;
57599;SDS011;43426;43.594;24.334;2024-03-02T07:59:12;140.60;;;71.40;;
57599;SDS011;43426;43.594;24.334;2024-03-02T08:01:38;77.70;;;36.97;;
57599;SDS011;43426;43.594;24.334;2024-03-02T08:04:03;61.90;;;34.78;;
57599;SDS011;43426;43.594;24.334;2024-03-02T08:06:29;81.05;;;38.08;;
57599;SDS011;43426;43.594;24.334;2024-03-02T08:08:58;47.20;;;20.08;;
57599;SDS011;43426;43.594;24.334;2024-03-02T08:11:25;55.33;;;20.65;;
57599;SDS011;43426;43.594;24.334;2024-03-02T08:13:56;58.25;;;20.25;;
57599;SDS011;43426;43.594;24.334;2024-03-02T08:16:24;55.00;;;28.08;;
57599;SDS011;43426;43.594;24.334;2024-03-02T08:18:50;52.80;;;23.23;;
57599;SDS011;43426;43.594;24.334;2024-03-02T08:21:17;42.83;;;18.30;;
57599;SDS011;43426;43.594;24.334;2024-03-02T08:23:43;38.80;;;18.38;;
57599;SDS011;43426;43.594;24.334;2024-03-02T08:26:09;36.75;;;20.98;;
57599;SDS011;43426;43.594;24.334;2024-03-02T08:28:35;42.08;;;21.98;;
57599;SDS011;43426;43.594;24.334;2024-03-02T08:31:05;48.35;;;22.63;;
57599;SDS011;43426;43.594;24.334;2024-03-02T08:33:32;34.42;;;18.40;;
57599;SDS011;43426;43.594;24.334;2024-03-02T08:35:57;35.83;;;19.95;;
57599;SDS011;43426;43.594;24.334;2024-03-02T08:38:23;41.53;;;21.77;;
57599;SDS011;43426;43.594;24.334;2024-03-02T08:40:49;46.05;;;18.63;;
57599;SDS011;43426;43.594;24.334;2024-03-02T08:45:40;42.10;;;19.17;;
57599;SDS011;43426;43.594;24.334;2024-03-02T08:48:09;37.33;;;18.83;;
57599;SDS011;43426;43.594;24.334;2024-03-02T08:50:35;47.55;;;22.80;;
57599;SDS011;43426;43.594;24.334;2024-03-02T08:53:02;42.92;;;20.67;;
57599;SDS011;43426;43.594;24.334;2024-03-02T08:55:30;52.83;;;20.60;;
57599;SDS011;43426;43.594;24.334;2024-03-02T08:57:56;49.33;;;22.10;;
57599;SDS011;43426;43.594;24.334;2024-03-02T09:00:22;45.75;;;20.10;;
57599;SDS011;43426;43.594;24.334;2024-03-02T09:02:48;43.60;;;20.38;;
57599;SDS011;43426;43.594;24.334;2024-03-02T09:05:14;41.95;;;20.17;;
57599;SDS011;43426;43.594;24.334;2024-03-02T09:10:06;46.00;;;19.85;;
57599;SDS011;43426;43.594;24.334;2024-03-02T09:12:32;43.55;;;20.90;;
57599;SDS011;43426;43.594;24.334;2024-03-02T09:14:59;56.35;;;22.98;;
57599;SDS011;43426;43.594;24.334;2024-03-02T09:17:26;52.78;;;22.05;;
57599;SDS011;43426;43.594;24.334;2024-03-02T09:19:51;38.53;;;18.35;;
57599;SDS011;43426;43.594;24.334;2024-03-02T09:22:20;38.97;;;19.40;;
57599;SDS011;43426;43.594;24.334;2024-03-02T09:24:45;490.67;;;232.98;;
57599;SDS011;43426;43.594;24.334;2024-03-02T09:27:11;413.77;;;152.52;;
57599;SDS011;43426;43.594;24.334;2024-03-02T09:29:37;98.55;;;43.85;;
57599;SDS011;43426;43.594;24.334;2024-03-02T09:34:29;47.97;;;26.20;;
57599;SDS011;43426;43.594;24.334;2024-03-02T09:36:55;38.72;;;20.17;;
57599;SDS011;43426;43.594;24.334;2024-03-02T09:39:20;45.45;;;21.65;;
57599;SDS011;43426;43.594;24.334;2024-03-02T09:41:47;40.90;;;22.63;;
57599;SDS011;43426;43.594;24.334;2024-03-02T09:44:13;42.05;;;23.17;;
57599;SDS011;43426;43.594;24.334;2024-03-02T09:46:39;50.28;;;27.58;;
57599;SDS011;43426;43.594;24.334;2024-03-02T09:51:31;64.68;;;42.45;;
57599;SDS011;43426;43.594;24.334;2024-03-02T09:53:56;55.13;;;35.72;;
57599;SDS011;43426;43.594;24.334;2024-03-02T09:56:22;52.55;;;28.23;;
57599;SDS011;43426;43.594;24.334;2024-03-02T09:58:48;62.42;;;29.00;;
57599;SDS011;43426;43.594;24.334;2024-03-02T10:01:13;38.70;;;22.50;;
57599;SDS011;43426;43.594;24.334;2024-03-02T10:03:39;60.15;;;37.95;;
57599;SDS011;43426;43.594;24.334;2024-03-02T10:06:23;38.58;;;23.05;;
57599;SDS011;43426;43.594;24.334;2024-03-02T10:08:50;59.13;;;35.25;;
57599;SDS011;43426;43.594;24.334;2024-03-02T10:11:29;49.50;;;28.55;;
57599;SDS011;43426;43.594;24.334;2024-03-02T10:14:12;57.80;;;32.05;;
57599;SDS011;43426;43.594;24.334;2024-03-02T10:16:39;48.20;;;23.73;;
57599;SDS011;43426;43.594;24.334;2024-03-02T10:19:15;39.00;;;20.52;;
57599;SDS011;43426;43.594;24.334;2024-03-02T10:21:42;212.85;;;105.78;;
57599;SDS011;43426;43.594;24.334;2024-03-02T10:24:07;338.90;;;137.02;;
57599;SDS011;43426;43.594;24.334;2024-03-02T10:26:33;345.50;;;137.45;;
57599;SDS011;43426;43.594;24.334;2024-03-02T10:28:58;386.23;;;175.90;;
57599;SDS011;43426;43.594;24.334;2024-03-02T10:31:25;258.52;;;101.03;;
57599;SDS011;43426;43.594;24.334;2024-03-02T10:33:54;582.53;;;291.60;;
57599;SDS011;43426;43.594;24.334;2024-03-02T10:36:20;317.60;;;129.52;;
57599;SDS011;43426;43.594;24.334;2024-03-02T10:38:46;109.50;;;54.60;;
57599;SDS011;43426;43.594;24.334;2024-03-02T10:41:16;41.67;;;24.33;;
57599;SDS011;43426;43.594;24.334;2024-03-02T10:43:43;48.42;;;23.55;;
57599;SDS011;43426;43.594;24.334;2024-03-02T10:46:10;399.63;;;159.70;;
57599;SDS011;43426;43.594;24.334;2024-03-02T10:48:36;408.92;;;146.60;;
57599;SDS011;43426;43.594;24.334;2024-03-02T10:51:06;77.10;;;39.85;;
57599;SDS011;43426;43.594;24.334;2024-03-02T10:53:32;57.50;;;36.80;;
57599;SDS011;43426;43.594;24.334;2024-03-02T10:55:57;55.00;;;33.00;;
57599;SDS011;43426;43.594;24.334;2024-03-02T10:58:31;45.80;;;29.40;;
57599;SDS011;43426;43.594;24.334;2024-03-02T11:00:58;52.03;;;26.13;;
57599;SDS011;43426;43.594;24.334;2024-03-02T11:03:33;51.25;;;24.90;;
57599;SDS011;43426;43.594;24.334;2024-03-02T11:06:00;46.30;;;25.23;;
57599;SDS011;43426;43.594;24.334;2024-03-02T11:08:32;49.42;;;25.00;;
57599;SDS011;43426;43.594;24.334;2024-03-02T11:11:05;44.17;;;23.08;;
57599;SDS011;43426;43.594;24.334;2024-03-02T11:13:33;43.33;;;21.45;;
57599;SDS011;43426;43.594;24.334;2024-03-02T11:16:03;42.65;;;21.58;;
57599;SDS011;43426;43.594;24.334;2024-03-02T11:18:33;51.45;;;22.08;;
57599;SDS011;43426;43.594;24.334;2024-03-02T11:21:00;48.25;;;22.02;;
57599;SDS011;43426;43.594;24.334;2024-03-02T11:23:32;40.95;;;22.13;;
57599;SDS011;43426;43.594;24.334;2024-03-02T11:28:47;42.85;;;21.83;;
57599;SDS011;43426;43.594;24.334;2024-03-02T11:31:13;42.83;;;20.58;;
57599;SDS011;43426;43.594;24.334;2024-03-02T11:33:38;57.63;;;22.38;;
57599;SDS011;43426;43.594;24.334;2024-03-02T11:36:05;37.67;;;20.85;;
57599;SDS011;43426;43.594;24.334;2024-03-02T11:38:32;38.83;;;20.10;;
57599;SDS011;43426;43.594;24.334;2024-03-02T11:41:02;42.28;;;21.75;;
57599;SDS011;43426;43.594;24.334;2024-03-02T11:43:32;38.03;;;21.23;;
57599;SDS011;43426;43.594;24.334;2024-03-02T11:46:03;159.18;;;87.68;;
57599;SDS011;43426;43.594;24.334;2024-03-02T11:48:32;136.40;;;81.25;;
57599;SDS011;43426;43.594;24.334;2024-03-02T11:51:00;72.57;;;41.17;;
57599;SDS011;43426;43.594;24.334;2024-03-02T11:53:26;79.40;;;45.65;;
57599;SDS011;43426;43.594;24.334;2024-03-02T11:55:57;136.30;;;78.15;;
57599;SDS011;43426;43.594;24.334;2024-03-02T11:58:24;51.95;;;27.33;;
57599;SDS011;43426;43.594;24.334;2024-03-02T12:00:51;95.60;;;53.63;;
57599;SDS011;43426;43.594;24.334;2024-03-02T12:03:22;156.73;;;91.80;;
57599;SDS011;43426;43.594;24.334;2024-03-02T12:05:54;54.63;;;31.48;;
57599;SDS011;43426;43.594;24.334;2024-03-02T12:08:20;47.85;;;28.60;;
57599;SDS011;43426;43.594;24.334;2024-03-02T12:11:00;70.70;;;40.28;;
57599;SDS011;43426;43.594;24.334;2024-03-02T12:13:27;72.10;;;49.70;;
57599;SDS011;43426;43.594;24.334;2024-03-02T12:15:53;156.45;;;99.47;;
57599;SDS011;43426;43.594;24.334;2024-03-02T12:18:21;213.55;;;125.45;;
57599;SDS011;43426;43.594;24.334;2024-03-02T12:20:46;107.70;;;65.75;;
57599;SDS011;43426;43.594;24.334;2024-03-02T12:23:18;48.42;;;29.55;;
57599;SDS011;43426;43.594;24.334;2024-03-02T12:25:44;60.53;;;34.72;;
57599;SDS011;43426;43.594;24.334;2024-03-02T12:28:10;57.13;;;31.35;;
57599;SDS011;43426;43.594;24.334;2024-03-02T12:30:36;47.70;;;33.35;;
57599;SDS011;43426;43.594;24.334;2024-03-02T12:33:01;46.80;;;29.58;;
57599;SDS011;43426;43.594;24.334;2024-03-02T12:35:27;37.20;;;20.75;;
57599;SDS011;43426;43.594;24.334;2024-03-02T12:37:53;38.80;;;24.25;;
57599;SDS011;43426;43.594;24.334;2024-03-02T12:42:46;31.13;;;16.38;;
57599;SDS011;43426;43.594;24.334;2024-03-02T12:45:12;31.83;;;16.73;;
57599;SDS011;43426;43.594;24.334;2024-03-02T12:47:42;31.98;;;16.60;;
57599;SDS011;43426;43.594;24.334;2024-03-02T12:50:08;31.42;;;16.52;;
57599;SDS011;43426;43.594;24.334;2024-03-02T12:52:35;30.75;;;16.58;;
57599;SDS011;43426;43.594;24.334;2024-03-02T12:57:29;33.45;;;15.27;;
57599;SDS011;43426;43.594;24.334;2024-03-02T12:59:58;151.73;;;73.25;;
57599;SDS011;43426;43.594;24.334;2024-03-02T13:02:28;41.20;;;23.15;;
57599;SDS011;43426;43.594;24.334;2024-03-02T13:04:55;28.20;;;16.38;;
57599;SDS011;43426;43.594;24.334;2024-03-02T13:07:20;28.90;;;15.60;;
57599;SDS011;43426;43.594;24.334;2024-03-02T13:09:48;29.20;;;15.80;;
57599;SDS011;43426;43.594;24.334;2024-03-02T13:12:15;34.17;;;16.23;;
57599;SDS011;43426;43.594;24.334;2024-03-02T13:14:41;24.40;;;15.40;;
57599;SDS011;43426;43.594;24.334;2024-03-02T13:17:10;28.85;;;15.70;;
57599;SDS011;43426;43.594;24.334;2024-03-02T13:19:35;24.80;;;14.82;;
57599;SDS011;43426;43.594;24.334;2024-03-02T13:22:01;26.95;;;15.93;;
57599;SDS011;43426;43.594;24.334;2024-03-02T13:24:30;24.55;;;14.60;;
57599;SDS011;43426;43.594;24.334;2024-03-02T13:26:56;38.53;;;15.80;;
57599;SDS011;43426;43.594;24.334;2024-03-02T13:29:23;32.00;;;16.85;;
57599;SDS011;43426;43.594;24.334;2024-03-02T13:34:15;31.55;;;15.88;;
57599;SDS011;43426;43.594;24.334;2024-03-02T13:36:40;31.73;;;15.75;;
57599;SDS011;43426;43.594;24.334;2024-03-02T13:39:06;25.25;;;15.93;;
57599;SDS011;43426;43.594;24.334;2024-03-02T13:41:34;26.83;;;15.32;;
57599;SDS011;43426;43.594;24.334;2024-03-02T13:44:00;25.60;;;16.17;;
57599;SDS011;43426;43.594;24.334;2024-03-02T13:46:29;28.48;;;14.90;;
57599;SDS011;43426;43.594;24.334;2024-03-02T13:48:54;26.05;;;15.45;;
57599;SDS011;43426;43.594;24.334;2024-03-02T13:51:20;26.05;;;16.02;;
57599;SDS011;43426;43.594;24.334;2024-03-02T13:56:12;28.23;;;16.75;;
57599;SDS011;43426;43.594;24.334;2024-03-02T13:58:37;30.60;;;16.73;;
57599;SDS011;43426;43.594;24.334;2024-03-02T14:01:03;26.35;;;17.02;;
57599;SDS011;43426;43.594;24.334;2024-03-02T14:03:30;29.67;;;17.73;;
57599;SDS011;43426;43.594;24.334;2024-03-02T14:05:56;29.52;;;17.52;;
57599;SDS011;43426;43.594;24.334;2024-03-02T14:08:21;26.95;;;17.77;;
57599;SDS011;43426;43.594;24.334;2024-03-02T14:10:47;32.92;;;17.23;;
57599;SDS011;43426;43.594;24.334;2024-03-02T14:13:12;27.45;;;18.50;;
57599;SDS011;43426;43.594;24.334;2024-03-02T14:15:38;28.17;;;16.85;;
57599;SDS011;43426;43.594;24.334;2024-03-02T14:20:30;31.77;;;18.20;;
57599;SDS011;43426;43.594;24.334;2024-03-02T14:22:56;38.30;;;19.02;;
57599;SDS011;43426;43.594;24.334;2024-03-02T14:25:24;31.98;;;18.95;;
57599;SDS011;43426;43.594;24.334;2024-03-02T14:27:49;31.50;;;18.90;;
57599;SDS011;43426;43.594;24.334;2024-03-02T14:30:15;30.60;;;17.58;;
57599;SDS011;43426;43.594;24.334;2024-03-02T14:32:40;33.70;;;17.95;;
57599;SDS011;43426;43.594;24.334;2024-03-02T14:35:06;33.85;;;18.25;;
57599;SDS011;43426;43.594;24.334;2024-03-02T14:37:35;25.40;;;17.75;;
57599;SDS011;43426;43.594;24.334;2024-03-02T14:40:01;25.95;;;17.05;;
57599;SDS011;43426;43.594;24.334;2024-03-02T14:42:28;29.42;;;17.50;;